TFM - Tactical Decision Aid
ID: Runway Winds: CIG/VIS Threshold:

KCNM - Carlsbad/Cavern City, NM, US

Updated at: 2230 UTC 01 Dec 2021
Latest TAF at: 1726 UTC 01 Dec 2021

TAF Board

Time2153Z 01/23Z 02/00Z 02/01Z 02/02Z 02/03Z 02/04Z 02/05Z 02/06Z 02/07Z 02/08Z 02/09Z 02/10Z 02/11Z>>
Type OBS PRVL PRVL PRVL PRVL PRVL PRVL PRVL PRVL PRVL PRVL PRVL PRVL PRVL
VIS 10 >6 >6 >6 >6 >6 >6 >6 >6 >6 >6 >6 >6 >6
CIG -- -- -- -- -- -- -- -- -- -- -- -- -- --
Cover CLR SCT SCT SCT SCT SCT SCT SCT SCT SCT SCT SCT SCT SCT
FltCat VFR VFR VFR VFR VFR VFR VFR VFR VFR VFR VFR VFR VFR VFR
WX -- -- -- -- -- -- -- -- -- -- -- -- -- --
WDir VRB 230 230 230 230 230 230 230 230 230 230 230 230 230
WSpd 0 8 8 8 8 8 8 8 8 8 8 8 8 8
WGst -- -- -- -- -- -- -- -- -- -- -- -- -- --
WSHgt -- -- -- -- -- -- -- -- -- -- -- -- -- --
WSDir -- -- -- -- -- -- -- -- -- -- -- -- -- --
WSSpd -- -- -- -- -- -- -- -- -- -- -- -- -- --

TDA Impact Legend

  None Marginal Slight Moderate High
Visibility (sm) >5 3≤X≤5 2≤X<3 0.5≤X<2 <0.5
Ceiling (100 ft) >30 10≤X≤30 6≤X<10 2≤X<6 <2
Wind Speed (kt) <15 15≤X<25 25≤X<30 ≥30
Wind Gust (kt) <15 15≤X<25 25≤X<35 ≥35
Weather No Wx Reported VCTS -TS,-FZRA TS,FZRA +TS,+FZRA
TAF
KCNM 011726Z 0118/0218 23008KT P6SM SCT200

METAR
KCNM 012153Z AUTO 00000KT 10SM CLR 20/00 A3015 RMK AO2 SLP178 T02000000 $
KCNM 012053Z AUTO 14004KT 10SM CLR 19/00 A3015 RMK AO2 SLP177 T01890000 56016
KCNM 011953Z AUTO 15003KT 10SM CLR 18/00 A3015 RMK AO2 SLP184 T01830000

Radar Display
Forecast Discussion